createdAt,value
2023-04-20T00:02:08.857Z,15.03
2023-04-20T00:04:41.326Z,15.43
2023-04-20T00:07:14.161Z,13.50
2023-04-20T00:09:46.410Z,17.37
2023-04-20T00:12:18.653Z,16.47
2023-04-20T00:14:51.471Z,12.70
2023-04-20T00:17:23.880Z,13.27
2023-04-20T00:19:56.075Z,17.83
2023-04-20T00:22:31.004Z,16.07
2023-04-20T00:25:10.410Z,18.17
2023-04-20T00:27:42.707Z,13.07
2023-04-20T00:30:16.758Z,12.43
2023-04-20T00:32:48.969Z,15.17
2023-04-20T00:35:21.570Z,18.00
2023-04-20T00:37:53.832Z,17.60
2023-04-20T00:40:26.098Z,17.27
2023-04-20T00:42:58.403Z,14.83
2023-04-20T00:45:31.908Z,16.23
2023-04-20T00:48:04.671Z,18.07
2023-04-20T00:50:38.845Z,13.80
2023-04-20T00:53:14.044Z,14.80
2023-04-20T00:55:47.063Z,17.10
2023-04-20T00:58:19.163Z,17.00
2023-04-20T01:00:51.636Z,14.93
2023-04-20T01:03:24.077Z,12.40
2023-04-20T01:05:56.587Z,13.50
2023-04-20T01:08:31.518Z,15.97
2023-04-20T01:11:03.703Z,15.67
2023-04-20T01:13:35.958Z,13.87
2023-04-20T01:16:08.629Z,15.53
2023-04-20T01:18:47.440Z,14.05
2023-04-20T01:21:21.972Z,16.90
2023-04-20T01:23:54.258Z,16.00
2023-04-20T01:26:27.078Z,13.00
2023-04-20T01:29:01.600Z,12.50
2023-04-20T01:31:33.890Z,19.50
2023-04-20T01:34:06.036Z,16.80
2023-04-20T01:36:38.250Z,13.43
2023-04-20T01:39:10.921Z,14.80
2023-04-20T01:41:43.393Z,15.13
2023-04-20T01:44:15.605Z,12.80
2023-04-20T01:46:49.377Z,14.27
2023-04-20T01:49:21.494Z,16.90
2023-04-20T01:51:54.351Z,15.17
2023-04-20T01:54:27.075Z,15.75
2023-04-20T01:57:00.987Z,13.88
2023-04-20T01:59:34.981Z,17.90
2023-04-20T02:02:07.832Z,13.93
2023-04-20T02:04:40.257Z,12.87
2023-04-20T02:07:12.590Z,14.00
2023-04-20T02:09:44.771Z,15.43
2023-04-20T02:12:16.917Z,17.87
2023-04-20T02:14:49.013Z,13.20
2023-04-20T02:17:21.284Z,17.23
2023-04-20T02:19:53.579Z,15.83
2023-04-20T02:22:25.785Z,13.53
2023-04-20T02:24:58.120Z,14.20
2023-04-20T02:27:30.614Z,16.07
2023-04-20T02:30:04.227Z,14.97
2023-04-20T02:32:36.645Z,14.13
2023-04-20T02:35:10.269Z,14.63
2023-04-20T02:37:42.831Z,14.65
2023-04-20T02:40:17.854Z,14.10
2023-04-20T02:42:50.093Z,15.30
2023-04-20T02:45:22.815Z,12.63
2023-04-20T02:47:55.183Z,13.37
2023-04-20T02:50:27.528Z,14.10
2023-04-20T02:53:07.389Z,14.63
2023-04-20T02:55:40.972Z,17.45
2023-04-20T02:58:25.602Z,15.50
2023-04-20T03:01:14.976Z,15.13
2023-04-20T03:03:47.787Z,11.90
2023-04-20T03:06:20.443Z,15.77
2023-04-20T03:08:57.662Z,14.50
2023-04-20T03:11:50.518Z,14.50
2023-04-20T03:14:53.323Z,14.43
2023-04-20T03:17:30.677Z,12.07
2023-04-20T03:20:03.001Z,14.07
2023-04-20T03:22:35.228Z,12.10
2023-04-20T03:25:09.337Z,15.30
2023-04-20T03:27:58.086Z,15.00
2023-04-20T03:30:31.593Z,14.37
2023-04-20T03:33:18.444Z,15.47
2023-04-20T03:35:50.655Z,12.77
2023-04-20T03:38:22.911Z,13.83
2023-04-20T03:40:57.093Z,13.30
2023-04-20T03:43:33.427Z,15.37
2023-04-20T03:46:05.690Z,17.03
2023-04-20T03:48:37.959Z,15.27
2023-04-20T03:51:10.289Z,16.07
2023-04-20T03:53:43.893Z,17.27
2023-04-20T03:56:17.545Z,14.33
2023-04-20T03:58:50.637Z,14.93
2023-04-20T04:01:27.213Z,18.57
2023-04-20T04:04:02.261Z,17.13
2023-04-20T04:06:37.596Z,19.00
2023-04-20T04:09:10.981Z,14.10
2023-04-20T04:11:45.937Z,13.07
2023-04-20T04:14:18.286Z,15.50
2023-04-20T04:16:50.755Z,14.17
2023-04-20T04:19:28.050Z,22.47
2023-04-20T04:22:03.933Z,14.47
2023-04-20T04:24:39.273Z,17.47
2023-04-20T04:27:15.747Z,19.37
2023-04-20T04:29:56.924Z,15.50
2023-04-20T04:32:32.614Z,16.80
2023-04-20T04:35:08.123Z,14.63
2023-04-20T04:37:41.279Z,18.27
2023-04-20T04:40:18.899Z,16.37
2023-04-20T04:42:52.738Z,16.77
2023-04-20T04:45:26.391Z,16.70
2023-04-20T04:47:59.176Z,14.67
2023-04-20T04:50:34.206Z,17.30
2023-04-20T04:53:08.619Z,17.17
2023-04-20T04:55:40.726Z,15.40
2023-04-20T04:58:12.979Z,18.37
2023-04-20T05:00:47.412Z,15.57
2023-04-20T05:03:20.169Z,18.50
2023-04-20T05:05:52.776Z,14.75
2023-04-20T05:08:25.727Z,16.07
2023-04-20T05:10:58.353Z,16.13
2023-04-20T05:13:33.023Z,16.07
2023-04-20T05:16:05.993Z,18.57
2023-04-20T05:18:40.955Z,14.87
2023-04-20T05:21:13.551Z,14.77
2023-04-20T05:23:48.278Z,14.45
2023-04-20T05:26:23.021Z,18.32
2023-04-20T05:28:59.884Z,16.33
2023-04-20T05:31:35.007Z,16.90
2023-04-20T05:34:09.502Z,15.67
2023-04-20T05:36:45.070Z,22.93
2023-04-20T05:39:17.767Z,14.17
2023-04-20T05:41:50.566Z,17.60
2023-04-20T05:44:25.143Z,19.60
2023-04-20T05:47:00.310Z,16.07
2023-04-20T05:49:32.479Z,14.17
2023-04-20T05:52:05.054Z,14.57
2023-04-20T05:54:37.265Z,18.63
2023-04-20T05:57:12.484Z,12.57
2023-04-20T05:59:45.375Z,20.73
2023-04-20T06:02:17.667Z,15.83
2023-04-20T06:04:50.232Z,17.27
2023-04-20T06:07:22.686Z,13.25
2023-04-20T06:09:54.872Z,14.57
2023-04-20T06:12:30.255Z,14.27
2023-04-20T06:15:02.787Z,12.60
2023-04-20T06:17:40.829Z,14.23
2023-04-20T06:20:14.171Z,15.37
2023-04-20T06:22:47.453Z,19.97
2023-04-20T06:25:20.131Z,16.03
2023-04-20T06:27:54.700Z,13.03
2023-04-20T06:30:26.927Z,22.27
2023-04-20T06:32:59.381Z,14.70
2023-04-20T06:35:38.766Z,13.87
2023-04-20T06:38:11.493Z,15.40
2023-04-20T06:40:43.688Z,15.80
2023-04-20T06:43:16.308Z,20.90
2023-04-20T06:45:48.757Z,12.77
2023-04-20T06:48:31.609Z,11.03
2023-04-20T06:51:04.756Z,17.42
2023-04-20T06:53:36.895Z,14.35
2023-04-20T06:56:11.540Z,16.73
2023-04-20T06:58:45.620Z,13.27
2023-04-20T07:01:20.255Z,12.53
2023-04-20T07:03:53.828Z,13.33
2023-04-20T07:06:27.841Z,10.07
2023-04-20T07:09:00.192Z,17.40
2023-04-20T07:11:35.644Z,8.85
2023-04-20T07:14:07.826Z,14.77
2023-04-20T07:16:40.367Z,13.90
2023-04-20T07:19:12.858Z,19.10
2023-04-20T07:21:46.635Z,24.30
2023-04-20T07:26:49.547Z,15.60
2023-04-20T07:29:22.020Z,13.70
2023-04-20T07:31:56.426Z,11.43
2023-04-20T07:34:28.706Z,16.13
2023-04-20T07:39:32.979Z,11.53
2023-04-20T07:42:06.974Z,13.37
2023-04-20T07:44:41.016Z,22.07
2023-04-20T07:47:13.280Z,14.17
2023-04-20T07:49:45.917Z,19.90
2023-04-20T07:52:18.480Z,23.07
2023-04-20T07:54:50.611Z,16.75
2023-04-20T07:57:25.637Z,12.85
2023-04-20T07:59:57.978Z,16.83
2023-04-20T08:02:33.159Z,23.53
2023-04-20T08:05:06.478Z,10.83
2023-04-20T08:07:39.015Z,10.95
2023-04-20T08:10:12.616Z,18.50
2023-04-20T08:12:51.150Z,11.53
2023-04-20T08:15:25.033Z,17.97
2023-04-20T08:17:57.183Z,17.40
2023-04-20T08:20:29.959Z,14.73
2023-04-20T08:23:02.133Z,12.47
2023-04-20T08:25:34.396Z,15.33
2023-04-20T08:28:11.968Z,12.77
2023-04-20T08:30:47.817Z,16.23
2023-04-20T08:33:20.019Z,16.73
2023-04-20T08:35:53.106Z,21.57
2023-04-20T08:38:33.859Z,27.32
2023-04-20T08:41:06.766Z,16.13
2023-04-20T08:43:39.068Z,19.47
2023-04-20T08:46:11.805Z,19.13
2023-04-20T08:48:46.948Z,21.80
2023-04-20T08:51:19.759Z,17.03
2023-04-20T08:53:52.570Z,13.70
2023-04-20T08:56:36.979Z,17.87
2023-04-20T08:59:14.346Z,14.03
2023-04-20T09:01:46.824Z,17.13
2023-04-20T09:04:21.666Z,15.60
2023-04-20T09:06:57.641Z,16.70
2023-04-20T09:09:30.005Z,14.07
2023-04-20T09:12:10.451Z,15.73
2023-04-20T09:14:48.693Z,14.37
2023-04-20T09:17:32.358Z,15.60
2023-04-20T09:20:05.352Z,17.45
2023-04-20T09:22:39.191Z,15.63
2023-04-20T09:25:19.416Z,10.63
2023-04-20T09:28:00.735Z,10.83
2023-04-20T09:30:42.409Z,13.23
2023-04-20T09:33:15.782Z,11.55
2023-04-20T09:35:48.436Z,13.93
2023-04-20T09:38:28.330Z,16.07
2023-04-20T09:41:02.299Z,9.87
2023-04-20T09:43:37.260Z,12.60
2023-04-20T09:46:12.695Z,11.17
2023-04-20T09:48:48.044Z,12.70
2023-04-20T09:51:20.788Z,12.93
2023-04-20T09:53:54.867Z,10.40
2023-04-20T09:56:27.868Z,15.93
2023-04-20T09:59:01.150Z,10.13
2023-04-20T10:01:36.451Z,9.60
2023-04-20T10:04:14.438Z,10.90
2023-04-20T10:07:03.351Z,10.07
2023-04-20T10:09:37.990Z,8.87
2023-04-20T10:12:12.577Z,12.00
2023-04-20T10:14:45.902Z,7.80
2023-04-20T10:17:18.291Z,6.87
2023-04-20T10:19:50.688Z,9.87
2023-04-20T10:22:33.215Z,13.57
2023-04-20T10:25:18.781Z,11.27
2023-04-20T10:28:02.221Z,7.07
2023-04-20T10:30:35.646Z,8.50
2023-04-20T10:35:48.806Z,11.80
2023-04-20T10:38:34.110Z,6.23
2023-04-20T10:41:10.710Z,5.20
2023-04-20T10:43:43.620Z,10.57
2023-04-20T10:46:21.764Z,10.32
2023-04-20T10:48:59.734Z,6.50
2023-04-20T10:51:32.530Z,10.20
2023-04-20T10:54:06.878Z,8.37
2023-04-20T10:56:51.968Z,8.67
2023-04-20T10:59:25.809Z,12.63
2023-04-20T11:02:01.568Z,9.60
2023-04-20T11:04:36.039Z,8.77
2023-04-20T11:07:10.615Z,6.10
2023-04-20T11:09:43.935Z,6.07
2023-04-20T11:12:16.242Z,8.47
2023-04-20T11:14:56.513Z,7.00
2023-04-20T11:17:36.642Z,11.17
2023-04-20T11:20:13.953Z,9.27
2023-04-20T11:22:58.011Z,4.77
2023-04-20T11:25:32.297Z,9.73
2023-04-20T11:28:10.069Z,8.73
2023-04-20T11:30:43.307Z,7.23
2023-04-20T11:33:16.305Z,10.60
2023-04-20T11:35:48.720Z,8.40
2023-04-20T11:38:29.711Z,6.13
2023-04-20T11:41:08.030Z,9.40
2023-04-20T11:43:40.348Z,8.13
2023-04-20T11:46:19.713Z,5.83
2023-04-20T11:48:51.897Z,6.70
2023-04-20T11:51:24.020Z,8.03
2023-04-20T11:53:56.292Z,8.13
2023-04-20T11:56:28.696Z,6.00
2023-04-20T11:59:02.533Z,6.30
2023-04-20T12:01:36.810Z,6.37
2023-04-20T12:04:09.783Z,8.20
2023-04-20T12:06:43.555Z,9.55
2023-04-20T12:09:16.008Z,9.67
2023-04-20T12:11:48.627Z,4.37
2023-04-20T12:14:20.932Z,8.10
2023-04-20T12:16:53.330Z,8.07
2023-04-20T12:19:28.604Z,9.20
2023-04-20T12:22:01.056Z,7.03
2023-04-20T12:24:36.104Z,5.83
2023-04-20T12:27:08.220Z,11.57
2023-04-20T12:29:41.357Z,7.30
2023-04-20T12:32:13.663Z,4.53
2023-04-20T12:34:45.783Z,17.53
2023-04-20T12:37:17.908Z,5.90
2023-04-20T12:39:50.229Z,12.35
2023-04-20T12:42:22.329Z,4.50
2023-04-20T12:44:57.095Z,4.50
2023-04-20T12:47:31.606Z,5.30
2023-04-20T12:50:04.346Z,7.00
2023-04-20T12:52:39.831Z,7.10
2023-04-20T12:55:12.697Z,11.33
2023-04-20T12:57:44.868Z,7.70
2023-04-20T13:00:18.232Z,9.10
2023-04-20T13:02:51.513Z,5.55
2023-04-20T13:05:24.063Z,8.35
2023-04-20T13:07:56.455Z,5.40
2023-04-20T13:10:30.785Z,8.53
2023-04-20T13:13:03.145Z,7.27
2023-04-20T13:15:41.090Z,7.90
2023-04-20T13:18:14.960Z,8.77
2023-04-20T13:20:47.389Z,7.23
2023-04-20T13:23:19.569Z,6.13
2023-04-20T13:25:52.663Z,8.63
2023-04-20T13:28:25.658Z,7.47
2023-04-20T13:30:58.426Z,9.80
2023-04-20T13:33:32.800Z,6.93
2023-04-20T13:36:05.668Z,7.60
2023-04-20T13:38:37.861Z,11.33
2023-04-20T13:41:14.008Z,5.17
2023-04-20T13:43:47.602Z,8.23
2023-04-20T13:46:21.366Z,9.77
2023-04-20T13:48:53.469Z,9.47
2023-04-20T13:51:27.080Z,6.67
2023-04-20T13:56:30.504Z,7.07
2023-04-20T13:59:04.820Z,9.03
2023-04-20T14:01:37.283Z,5.07
2023-04-20T14:04:11.714Z,8.03
2023-04-20T14:06:46.539Z,8.00
2023-04-20T14:09:18.703Z,10.67
2023-04-20T14:11:53.496Z,7.53
2023-04-20T14:14:28.260Z,7.63
2023-04-20T14:17:00.460Z,7.03
2023-04-20T14:19:33.142Z,8.50
2023-04-20T14:22:05.377Z,5.20
2023-04-20T14:24:37.483Z,6.80
2023-04-20T14:27:12.194Z,7.33
2023-04-20T14:29:44.858Z,6.17
2023-04-20T14:32:17.007Z,5.03
2023-04-20T14:34:49.338Z,6.40
2023-04-20T14:37:21.467Z,8.80
2023-04-20T14:39:53.617Z,8.35
2023-04-20T14:42:26.224Z,6.43
2023-04-20T14:44:59.218Z,5.77
2023-04-20T14:47:33.443Z,8.00
2023-04-20T14:50:06.420Z,8.30
2023-04-20T14:52:38.721Z,5.93
2023-04-20T14:55:11.248Z,7.50
2023-04-20T14:57:43.463Z,9.20
2023-04-20T15:00:20.702Z,6.00
2023-04-20T15:02:56.315Z,10.60
2023-04-20T15:05:29.453Z,11.23
2023-04-20T15:08:04.128Z,7.80
2023-04-20T15:10:37.975Z,9.40
2023-04-20T15:13:10.584Z,8.80
2023-04-20T15:18:20.214Z,5.95
2023-04-20T15:20:53.597Z,6.40
2023-04-20T15:23:25.804Z,9.25
2023-04-20T15:25:57.980Z,6.43
2023-04-20T15:28:31.689Z,8.30
2023-04-20T15:33:35.586Z,7.47
2023-04-20T15:36:08.835Z,7.55
2023-04-20T15:38:41.491Z,9.03
2023-04-20T15:41:15.719Z,6.57
2023-04-20T15:43:51.545Z,10.90
2023-04-20T15:46:26.332Z,6.30
2023-04-20T15:48:58.981Z,8.30
2023-04-20T15:51:31.254Z,7.30
2023-04-20T15:54:03.539Z,8.20
2023-04-20T15:56:35.774Z,9.53
2023-04-20T15:59:07.954Z,6.63
2023-04-20T16:01:40.185Z,10.80
2023-04-20T16:04:13.870Z,7.57
2023-04-20T16:06:46.399Z,8.73
2023-04-20T16:09:19.205Z,11.03
2023-04-20T16:11:52.182Z,6.10
2023-04-20T16:14:24.630Z,7.10
2023-04-20T16:16:57.429Z,11.00
2023-04-20T16:19:32.463Z,7.70
2023-04-20T16:22:04.642Z,9.63
2023-04-20T16:24:36.849Z,7.50
2023-04-20T16:27:09.142Z,8.37
2023-04-20T16:29:41.544Z,6.93
2023-04-20T16:32:17.363Z,7.47
2023-04-20T16:34:49.793Z,13.83
2023-04-20T16:37:21.972Z,6.40
2023-04-20T16:39:54.131Z,9.95
2023-04-20T16:42:26.487Z,9.43
2023-04-20T16:44:58.973Z,7.37
2023-04-20T16:47:32.772Z,12.30
2023-04-20T16:50:07.374Z,8.27
2023-04-20T16:52:39.709Z,8.73
2023-04-20T16:55:14.291Z,7.73
2023-04-20T16:57:46.978Z,10.33
2023-04-20T17:00:27.567Z,9.63
2023-04-20T17:03:02.399Z,11.77
2023-04-20T17:05:41.136Z,8.47
2023-04-20T17:08:14.432Z,8.93
2023-04-20T17:10:47.156Z,10.23
2023-04-20T17:13:19.638Z,8.40
2023-04-20T17:15:52.517Z,9.43
2023-04-20T17:18:24.871Z,8.17
2023-04-20T17:20:59.900Z,9.33
2023-04-20T17:23:36.410Z,9.33
2023-04-20T17:26:08.872Z,15.10
2023-04-20T17:28:41.139Z,9.30
2023-04-20T17:31:13.307Z,9.80
2023-04-20T17:33:45.855Z,8.67
2023-04-20T17:36:18.180Z,10.30
2023-04-20T17:38:50.408Z,8.33
2023-04-20T17:41:22.821Z,8.10
2023-04-20T17:43:54.991Z,10.87
2023-04-20T17:46:27.299Z,7.70
2023-04-20T17:48:59.642Z,6.80
2023-04-20T17:51:32.459Z,14.50
2023-04-20T17:54:05.220Z,7.27
2023-04-20T17:56:37.528Z,10.17
2023-04-20T17:59:12.359Z,8.08
2023-04-20T18:01:44.553Z,9.45
2023-04-20T18:04:17.482Z,9.40
2023-04-20T18:06:51.603Z,12.78
2023-04-20T18:09:24.609Z,10.35
2023-04-20T18:11:57.225Z,8.63
2023-04-20T18:14:30.300Z,11.30
2023-04-20T18:17:02.776Z,11.73
2023-04-20T18:19:36.024Z,14.13
2023-04-20T18:22:09.166Z,12.13
2023-04-20T18:24:41.608Z,13.78
2023-04-20T18:27:13.977Z,12.93
2023-04-20T18:29:46.517Z,10.53
2023-04-20T18:32:19.172Z,11.13
2023-04-20T18:34:51.963Z,12.23
2023-04-20T18:37:24.262Z,14.93
2023-04-20T18:39:56.753Z,12.50
2023-04-20T18:42:29.245Z,14.05
2023-04-20T18:45:04.377Z,12.30
2023-04-20T18:47:36.803Z,16.93
2023-04-20T18:50:11.913Z,13.83
2023-04-20T18:52:45.353Z,15.93
2023-04-20T18:55:17.865Z,13.93
2023-04-20T18:57:50.269Z,11.97
2023-04-20T19:00:23.839Z,9.80
2023-04-20T19:02:56.374Z,17.00
2023-04-20T19:05:28.784Z,13.50
2023-04-20T19:08:01.689Z,14.47
2023-04-20T19:10:36.503Z,15.97
2023-04-20T19:13:09.403Z,13.00
2023-04-20T19:15:41.761Z,12.83
2023-04-20T19:18:16.232Z,11.70
2023-04-20T19:20:48.950Z,11.73
2023-04-20T19:23:22.380Z,13.93
2023-04-20T19:25:55.193Z,13.10
2023-04-20T19:28:27.415Z,11.00
2023-04-20T19:30:59.903Z,15.47
2023-04-20T19:33:34.770Z,13.17
2023-04-20T19:36:08.520Z,12.07
2023-04-20T19:38:41.254Z,12.85
2023-04-20T19:41:14.059Z,15.43
2023-04-20T19:43:46.850Z,12.43
2023-04-20T19:46:19.477Z,12.93
2023-04-20T19:48:51.879Z,12.80
2023-04-20T19:51:25.651Z,18.83
2023-04-20T19:54:00.192Z,13.32
2023-04-20T19:56:32.697Z,10.93
2023-04-20T19:59:05.662Z,13.93
2023-04-20T20:01:38.391Z,16.03
2023-04-20T20:04:10.854Z,13.60
2023-04-20T20:06:48.773Z,17.57
2023-04-20T20:09:23.843Z,17.60
2023-04-20T20:11:56.845Z,12.03
2023-04-20T20:14:31.258Z,23.67
2023-04-20T20:17:03.496Z,17.97
2023-04-20T20:19:35.716Z,11.47
2023-04-20T20:22:07.942Z,11.40
2023-04-20T20:24:40.305Z,16.13
2023-04-20T20:27:12.673Z,12.80
2023-04-20T20:29:45.353Z,14.07
2023-04-20T20:32:17.545Z,15.80
2023-04-20T20:34:50.477Z,15.80
2023-04-20T20:37:22.630Z,23.87
2023-04-20T20:39:54.845Z,21.40
2023-04-20T20:42:30.927Z,15.67
2023-04-20T20:45:03.705Z,13.80
2023-04-20T20:47:37.079Z,14.33
2023-04-20T20:50:11.155Z,17.97
2023-04-20T20:52:43.414Z,18.13
2023-04-20T20:55:15.965Z,16.90
2023-04-20T20:57:48.232Z,16.30
2023-04-20T21:00:21.324Z,17.97
2023-04-20T21:02:57.502Z,14.50
2023-04-20T21:05:34.376Z,17.10
2023-04-20T21:08:10.151Z,12.57
2023-04-20T21:10:42.918Z,15.43
2023-04-20T21:13:15.875Z,14.63
2023-04-20T21:15:48.209Z,17.17
2023-04-20T21:18:20.342Z,23.17
2023-04-20T21:20:53.956Z,11.08
2023-04-20T21:23:31.429Z,15.70
2023-04-20T21:26:03.675Z,11.57
2023-04-20T21:28:35.925Z,13.73
2023-04-20T21:31:08.246Z,16.03
2023-04-20T21:33:40.575Z,15.13
2023-04-20T21:36:12.802Z,15.23
2023-04-20T21:38:45.047Z,15.73
2023-04-20T21:41:17.541Z,14.47
2023-04-20T21:43:52.745Z,15.53
2023-04-20T21:46:24.964Z,13.00
2023-04-20T21:48:57.178Z,14.90
2023-04-20T21:51:29.469Z,17.63
2023-04-20T21:54:02.633Z,14.07
2023-04-20T21:56:36.291Z,14.57
2023-04-20T21:59:08.418Z,11.20
2023-04-20T22:01:40.650Z,18.30
2023-04-20T22:04:14.101Z,12.27
2023-04-20T22:06:47.170Z,14.47
2023-04-20T22:09:19.476Z,12.80
2023-04-20T22:11:51.770Z,11.15
2023-04-20T22:14:23.998Z,16.00
2023-04-20T22:16:56.047Z,13.67
2023-04-20T22:19:29.249Z,15.60
2023-04-20T22:22:01.411Z,16.37
2023-04-20T22:24:34.602Z,14.40
2023-04-20T22:27:06.768Z,18.73
2023-04-20T22:29:39.016Z,15.87
2023-04-20T22:32:11.162Z,13.17
2023-04-20T22:34:43.311Z,19.13
2023-04-20T22:37:15.434Z,14.25
2023-04-20T22:39:47.651Z,13.57
2023-04-20T22:42:19.824Z,13.57
2023-04-20T22:44:51.960Z,12.33
2023-04-20T22:47:24.400Z,13.93
2023-04-20T22:49:57.063Z,12.00
2023-04-20T22:52:29.166Z,10.60
2023-04-20T22:55:02.709Z,13.67
2023-04-20T22:57:35.708Z,12.70
2023-04-20T23:00:11.019Z,12.27
2023-04-20T23:02:43.448Z,12.60
2023-04-20T23:05:20.533Z,16.77
2023-04-20T23:07:54.090Z,10.33
2023-04-20T23:10:28.799Z,12.70
2023-04-20T23:13:01.381Z,13.30
2023-04-20T23:15:36.255Z,10.67
2023-04-20T23:18:08.716Z,9.67
2023-04-20T23:20:41.009Z,11.93
2023-04-20T23:23:13.310Z,10.53
2023-04-20T23:25:46.496Z,11.60
2023-04-20T23:28:18.672Z,14.27
2023-04-20T23:30:51.147Z,12.60
2023-04-20T23:33:23.352Z,11.65
2023-04-20T23:35:55.502Z,13.00
2023-04-20T23:38:28.887Z,10.63
2023-04-20T23:41:08.940Z,13.73
2023-04-20T23:43:42.025Z,13.60
2023-04-20T23:46:15.407Z,10.27
2023-04-20T23:48:49.432Z,9.73
2023-04-20T23:51:21.722Z,12.60
2023-04-20T23:53:54.008Z,14.50
2023-04-20T23:56:26.437Z,12.57
2023-04-20T23:58:59.843Z,11.47
